Time;durP1;ratioP1;P1;durP2;ratioP2;P2;SDS_P1;SDS_P2;PMS_P1;PMS_P2;Temp;Humidity;BMP_temperature;BMP_pressure;BME280_temperature;BME280_humidity;BME280_pressure;Samples;Min_cycle;Max_cycle;Signal;HPM_P1;HPM_P2
2021/01/17 00:02:25;;;;;;;1.60;0.68;;;3.70;99.90;;;;;;5074124;28;20162;-75
2021/01/17 00:04:51;;;;;;;3.35;1.52;;;3.60;99.90;;;;;;5074338;28;20696;-75
2021/01/17 00:07:16;;;;;;;0.88;0.85;;;3.60;99.90;;;;;;5074000;28;20163;-75
2021/01/17 00:09:42;;;;;;;2.53;1.50;;;3.60;99.90;;;;;;5055994;28;20254;-75
2021/01/17 00:12:09;;;;;;;1.27;1.27;;;3.70;99.90;;;;;;5073861;28;20162;-75
2021/01/17 00:14:36;;;;;;;0.43;0.43;;;3.80;99.90;;;;;;5073503;28;20193;-75
2021/01/17 00:17:02;;;;;;;2.00;0.70;;;3.70;99.90;;;;;;5073943;28;20198;-75
2021/01/17 00:19:28;;;;;;;1.38;1.38;;;3.70;99.90;;;;;;5073667;28;20257;-75
2021/01/17 00:21:54;;;;;;;1.25;1.15;;;3.70;99.90;;;;;;5073689;28;20253;-76
2021/01/17 00:24:19;;;;;;;1.48;1.38;;;3.70;99.90;;;;;;5073727;28;20174;-76
2021/01/17 00:26:45;;;;;;;1.08;0.98;;;3.60;99.90;;;;;;5073470;28;20207;-75
2021/01/17 00:29:11;;;;;;;2.20;1.05;;;3.60;99.90;;;;;;5073618;28;20170;-76
2021/01/17 00:31:36;;;;;;;0.55;0.55;;;3.60;99.90;;;;;;5073733;28;20558;-77
2021/01/17 00:34:03;;;;;;;1.00;1.00;;;3.60;99.90;;;;;;5055799;28;20689;-76
2021/01/17 00:36:29;;;;;;;12.85;0.90;;;3.50;99.90;;;;;;5073772;28;20332;-77
2021/01/17 00:38:54;;;;;;;2.33;2.22;;;3.50;99.90;;;;;;5073703;28;20201;-76
2021/01/17 00:41:28;;;;;;;1.38;1.10;;;3.70;99.90;;;;;;5073364;28;20158;-75
2021/01/17 00:43:53;;;;;;;1.50;0.98;;;3.70;99.90;;;;;;5073307;28;20177;-75
2021/01/17 00:46:19;;;;;;;8.32;2.58;;;3.70;99.90;;;;;;5055205;28;20194;-77
2021/01/17 00:48:45;;;;;;;0.50;0.50;;;3.80;99.90;;;;;;5073202;28;20170;-76
2021/01/17 00:51:10;;;;;;;1.20;1.20;;;3.70;99.90;;;;;;5072168;28;20165;-75
2021/01/17 00:53:36;;;;;;;13.57;1.65;;;3.90;99.90;;;;;;5073172;28;20170;-75
2021/01/17 00:56:01;;;;;;;3.63;2.65;;;4.00;99.90;;;;;;5072911;28;20220;-75
2021/01/17 00:58:27;;;;;;;0.40;0.40;;;4.00;99.90;;;;;;5073090;28;20165;-77
2021/01/17 01:00:52;;;;;;;0.47;0.47;;;3.90;99.90;;;;;;5073109;28;20171;-76
2021/01/17 01:03:18;;;;;;;1.20;0.82;;;4.00;99.90;;;;;;5072939;28;20166;-78
2021/01/17 01:05:44;;;;;;;0.30;0.30;;;4.00;99.90;;;;;;5072983;28;20183;-74
2021/01/17 01:08:09;;;;;;;1.00;0.98;;;4.10;99.90;;;;;;5073050;28;20155;-75
2021/01/17 01:10:35;;;;;;;0.52;0.45;;;4.10;99.90;;;;;;5055061;28;20701;-76
2021/01/17 01:13:01;;;;;;;1.48;1.45;;;4.00;99.90;;;;;;5055079;28;20162;-76
2021/01/17 01:15:26;;;;;;;2.35;2.25;;;4.20;99.90;;;;;;5054850;28;20202;-75
2021/01/17 01:17:52;;;;;;;0.70;0.70;;;4.10;99.90;;;;;;5073024;28;20201;-77
2021/01/17 01:20:18;;;;;;;1.08;1.08;;;4.10;99.90;;;;;;5054956;28;20181;-77
2021/01/17 01:22:43;;;;;;;0.38;0.38;;;4.20;99.90;;;;;;5072694;28;20226;-76
2021/01/17 01:25:10;;;;;;;0.65;0.65;;;4.30;99.90;;;;;;5072756;28;20193;-74
2021/01/17 01:27:35;;;;;;;4.10;1.40;;;4.30;99.90;;;;;;5072799;28;20170;-75
2021/01/17 01:30:02;;;;;;;7.82;2.67;;;4.40;99.90;;;;;;5072844;28;20281;-76
2021/01/17 01:32:27;;;;;;;1.77;1.67;;;4.50;99.90;;;;;;5072662;28;20181;-76
2021/01/17 01:34:53;;;;;;;3.75;1.83;;;4.50;99.90;;;;;;5072685;28;20265;-75
2021/01/17 01:37:18;;;;;;;0.45;0.45;;;4.40;99.90;;;;;;5072661;28;20665;-77
2021/01/17 01:39:44;;;;;;;0.43;0.43;;;4.40;99.90;;;;;;5054758;28;20570;-75
2021/01/17 01:42:10;;;;;;;1.25;1.25;;;4.20;99.90;;;;;;5072976;28;20253;-75
2021/01/17 01:44:35;;;;;;;0.68;0.68;;;3.90;99.90;;;;;;5072658;28;20162;-74
2021/01/17 01:47:02;;;;;;;2.10;1.08;;;3.90;99.90;;;;;;5072645;28;20175;-74
2021/01/17 01:49:28;;;;;;;0.40;0.40;;;4.00;99.90;;;;;;5072632;28;20768;-76
2021/01/17 01:51:59;;;;;;;3.40;1.42;;;3.90;99.90;;;;;;5072662;28;20170;-75
2021/01/17 01:54:24;;;;;;;1.65;1.60;;;3.90;99.90;;;;;;5072429;28;20167;-76
2021/01/17 01:56:54;;;;;;;1.13;1.13;;;3.80;99.90;;;;;;5072453;28;20207;-76
2021/01/17 01:59:21;;;;;;;2.25;2.15;;;4.10;99.90;;;;;;5072516;28;20163;-76
2021/01/17 02:01:48;;;;;;;1.45;1.35;;;4.20;99.90;;;;;;5073265;28;20166;-76
2021/01/17 02:04:14;;;;;;;1.95;1.00;;;4.20;99.90;;;;;;5076143;28;20192;-76
2021/01/17 02:06:58;;;;;;;1.10;1.10;;;4.30;99.90;;;;;;5076065;28;20186;-75
2021/01/17 02:09:28;;;;;;;1.17;1.15;;;4.40;99.90;;;;;;5076138;28;20186;-76
2021/01/17 02:12:28;;;;;;;0.40;0.40;;;4.50;99.90;;;;;;5075999;28;20511;-76
2021/01/17 02:15:17;;;;;;;0.70;0.70;;;4.40;99.90;;;;;;5076191;28;20193;-76
2021/01/17 02:17:43;;;;;;;1.00;1.00;;;4.10;99.90;;;;;;5058225;28;20279;-76
2021/01/17 02:20:22;;;;;;;0.70;0.70;;;4.30;99.90;;;;;;5076207;28;20162;-76
2021/01/17 02:23:02;;;;;;;0.80;0.80;;;4.40;99.90;;;;;;5076652;28;20218;-76
2021/01/17 02:25:36;;;;;;;1.15;0.65;;;4.40;99.90;;;;;;5075793;28;20237;-76
2021/01/17 02:28:09;;;;;;;1.63;1.63;;;4.30;99.90;;;;;;5076547;28;20245;-76
2021/01/17 02:30:38;;;;;;;1.27;1.00;;;4.30;99.90;;;;;;5075952;28;20166;-76
2021/01/17 02:33:22;;;;;;;1.40;1.05;;;4.30;99.90;;;;;;5076250;28;20170;-76
2021/01/17 02:35:51;;;;;;;3.85;1.98;;;4.70;99.90;;;;;;5075937;28;20197;-76
2021/01/17 02:38:34;;;;;;;0.90;0.90;;;4.90;99.90;;;;;;5075908;28;20190;-76
2021/01/17 02:41:38;;;;;;;0.60;0.60;;;4.70;99.90;;;;;;5057769;28;20641;-76
2021/01/17 02:44:05;;;;;;;0.88;0.88;;;4.60;99.90;;;;;;5075583;28;20208;-76
2021/01/17 02:46:31;;;;;;;0.95;0.95;;;4.80;99.90;;;;;;5075849;28;20187;-76
2021/01/17 02:48:57;;;;;;;0.35;0.35;;;4.90;99.90;;;;;;5076032;28;20157;-75
2021/01/17 02:51:25;;;;;;;7.90;2.05;;;4.80;99.90;;;;;;5076114;28;20163;-75
2021/01/17 02:54:08;;;;;;;1.65;0.75;;;4.90;99.90;;;;;;5075911;28;20513;-77
2021/01/17 02:56:37;;;;;;;1.15;1.15;;;4.80;99.90;;;;;;5075822;28;20263;-76
2021/01/17 02:59:06;;;;;;;12.32;1.30;;;4.70;99.90;;;;;;5075945;28;20260;-76
2021/01/17 03:01:35;;;;;;;1.25;1.17;;;4.80;99.90;;;;;;5075703;28;20564;-76
2021/01/17 03:04:26;;;;;;;2.38;1.23;;;5.00;99.90;;;;;;5075949;28;20626;-76
2021/01/17 03:06:52;;;;;;;4.45;1.25;;;4.90;99.90;;;;;;5075783;28;20165;-76
2021/01/17 03:09:18;;;;;;;5.63;1.05;;;5.10;99.90;;;;;;5075601;28;20505;-76
2021/01/17 03:11:44;;;;;;;2.13;1.75;;;4.90;99.90;;;;;;5075277;28;20187;-76
2021/01/17 03:14:10;;;;;;;2.80;2.33;;;4.80;99.90;;;;;;5074330;28;20255;-75
2021/01/17 03:16:36;;;;;;;2.10;1.95;;;5.00;99.90;;;;;;5074960;28;20248;-75
2021/01/17 03:19:01;;;;;;;0.85;0.85;;;5.10;99.90;;;;;;5075375;28;20171;-75
2021/01/17 03:21:27;;;;;;;1.23;1.23;;;5.40;99.90;;;;;;5075119;28;20147;-75
2021/01/17 03:23:53;;;;;;;2.78;2.08;;;5.30;99.90;;;;;;5075025;28;20222;-76
2021/01/17 03:26:18;;;;;;;0.70;0.70;;;5.30;99.90;;;;;;5074794;28;20551;-75
2021/01/17 03:28:44;;;;;;;1.50;1.50;;;5.20;99.90;;;;;;5074700;28;20529;-76
2021/01/17 03:31:09;;;;;;;1.58;1.48;;;5.10;99.90;;;;;;5056992;28;20167;-76
2021/01/17 03:33:35;;;;;;;2.42;2.22;;;5.10;99.90;;;;;;5074802;28;20216;-76
2021/01/17 03:36:00;;;;;;;4.90;3.05;;;4.90;99.90;;;;;;5074750;28;20214;-76
2021/01/17 03:38:26;;;;;;;3.40;2.05;;;5.00;99.90;;;;;;5075133;28;20162;-75
2021/01/17 03:40:51;;;;;;;3.92;3.20;;;5.20;99.90;;;;;;5074684;28;20748;-76
2021/01/17 03:43:17;;;;;;;0.77;0.77;;;5.20;99.90;;;;;;5074726;28;20234;-76
2021/01/17 03:45:43;;;;;;;2.08;1.98;;;5.30;99.90;;;;;;5074725;28;20187;-77
2021/01/17 03:48:08;;;;;;;0.73;0.73;;;5.40;99.90;;;;;;5075112;28;20304;-76
2021/01/17 03:50:34;;;;;;;2.70;2.50;;;5.30;99.90;;;;;;5074761;28;20625;-75
2021/01/17 03:52:59;;;;;;;1.33;1.27;;;5.30;99.90;;;;;;5074623;28;20175;-76
2021/01/17 03:55:25;;;;;;;1.08;1.08;;;5.40;99.90;;;;;;5074494;28;20194;-76
2021/01/17 03:57:50;;;;;;;4.93;2.47;;;5.20;99.90;;;;;;5074722;28;20192;-76
2021/01/17 04:00:16;;;;;;;23.70;3.30;;;5.20;99.90;;;;;;5074429;28;20618;-76
2021/01/17 04:02:42;;;;;;;0.47;0.43;;;5.40;99.90;;;;;;5074551;28;20689;-76
2021/01/17 04:05:08;;;;;;;2.55;2.45;;;5.20;99.90;;;;;;5074263;28;20179;-76
2021/01/17 04:07:34;;;;;;;9.32;2.95;;;5.40;99.90;;;;;;5074410;28;20174;-75
2021/01/17 04:09:59;;;;;;;1.52;1.45;;;5.30;99.90;;;;;;5074420;28;20173;-76
2021/01/17 04:12:25;;;;;;;2.33;1.33;;;5.30;99.90;;;;;;5074278;28;20202;-74
2021/01/17 04:14:50;;;;;;;1.35;1.35;;;5.30;99.90;;;;;;5073982;28;20582;-76
2021/01/17 04:17:16;;;;;;;0.93;0.93;;;5.30;99.90;;;;;;5074089;28;20191;-76
2021/01/17 04:19:41;;;;;;;1.88;1.77;;;5.30;99.90;;;;;;5074434;28;20291;-76
2021/01/17 04:22:07;;;;;;;1.05;1.05;;;5.30;99.90;;;;;;5074078;28;20210;-76
2021/01/17 04:24:32;;;;;;;1.30;1.10;;;5.20;99.90;;;;;;5074160;28;20201;-75
2021/01/17 04:27:02;;;;;;;1.00;0.95;;;5.30;99.90;;;;;;5074207;28;20633;-76
2021/01/17 04:29:28;;;;;;;1.15;1.08;;;5.50;99.90;;;;;;5074157;28;20163;-76
2021/01/17 04:31:54;;;;;;;4.40;1.52;;;5.40;99.90;;;;;;5074100;28;20667;-77
2021/01/17 04:34:22;;;;;;;1.63;1.60;;;5.40;99.90;;;;;;5073967;28;20235;-75
2021/01/17 04:36:48;;;;;;;1.50;1.40;;;5.40;99.90;;;;;;5073915;28;20261;-77
2021/01/17 04:39:14;;;;;;;1.65;1.45;;;5.30;99.90;;;;;;5073824;28;20163;-76
2021/01/17 04:41:43;;;;;;;2.25;1.85;;;5.30;99.90;;;;;;5073985;28;20683;-75
2021/01/17 04:44:10;;;;;;;0.60;0.60;;;5.40;99.90;;;;;;5073823;28;20216;-75
2021/01/17 04:46:38;;;;;;;0.57;0.57;;;5.60;99.90;;;;;;5055866;28;20198;-77
2021/01/17 04:49:09;;;;;;;1.17;1.13;;;5.70;99.90;;;;;;5055750;28;20253;-76
2021/01/17 04:51:35;;;;;;;0.93;0.93;;;5.70;99.90;;;;;;5073737;28;20167;-75
2021/01/17 04:54:03;;;;;;;2.35;2.15;;;5.70;99.90;;;;;;5073864;28;20531;-76
2021/01/17 04:56:31;;;;;;;1.92;1.83;;;5.80;99.90;;;;;;5073283;28;20194;-75
2021/01/17 04:59:13;;;;;;;0.95;0.95;;;6.00;99.90;;;;;;5055420;28;20163;-76
2021/01/17 05:01:48;;;;;;;0.88;0.85;;;6.10;99.90;;;;;;5073552;28;20151;-76
2021/01/17 05:04:36;;;;;;;0.50;0.50;;;6.20;99.90;;;;;;5073405;28;20169;-76
2021/01/17 05:07:09;;;;;;;7.32;3.22;;;6.10;99.90;;;;;;5073606;28;20216;-76
2021/01/17 05:09:43;;;;;;;0.85;0.85;;;6.10;99.90;;;;;;5073535;28;20224;-76
2021/01/17 05:12:13;;;;;;;0.30;0.30;;;6.10;99.90;;;;;;5073432;28;20163;-76
2021/01/17 05:14:58;;;;;;;1.67;1.58;;;6.20;99.90;;;;;;5073357;28;20202;-76
2021/01/17 05:17:27;;;;;;;0.30;0.30;;;6.10;99.90;;;;;;5055184;28;20237;-75
2021/01/17 05:19:52;;;;;;;0.65;0.65;;;6.20;99.90;;;;;;5073102;28;20633;-76
2021/01/17 05:22:21;;;;;;;1.40;1.33;;;6.30;99.90;;;;;;5073192;28;20255;-75
2021/01/17 05:24:52;;;;;;;0.52;0.52;;;6.30;99.90;;;;;;5073258;28;20190;-76
2021/01/17 05:27:18;;;;;;;2.15;1.58;;;6.40;99.90;;;;;;5073428;28;20173;-76
2021/01/17 05:29:44;;;;;;;1.42;1.15;;;6.40;99.90;;;;;;5073047;28;20249;-75
2021/01/17 05:32:12;;;;;;;0.20;0.20;;;6.50;99.90;;;;;;5073045;28;20651;-75
2021/01/17 05:34:39;;;;;;;1.70;1.02;;;6.50;99.90;;;;;;5073055;28;20190;-76
2021/01/17 05:37:14;;;;;;;6.15;1.00;;;6.50;99.90;;;;;;5074298;28;20209;-76
2021/01/17 05:40:09;;;;;;;2.72;1.95;;;6.50;99.90;;;;;;5077393;28;20163;-75
2021/01/17 05:42:42;;;;;;;1.77;1.67;;;6.50;99.90;;;;;;5055925;28;20247;-76
2021/01/17 05:45:16;;;;;;;0.45;0.45;;;6.30;99.90;;;;;;5076927;28;20229;-76
2021/01/17 05:47:56;;;;;;;0.95;0.95;;;6.20;99.90;;;;;;5076842;28;20299;-76
2021/01/17 05:50:23;;;;;;;3.53;1.75;;;6.30;99.90;;;;;;5076746;28;20170;-75
2021/01/17 05:52:53;;;;;;;0.68;0.68;;;6.30;99.90;;;;;;5076863;28;20556;-75
2021/01/17 05:55:27;;;;;;;0.73;0.73;;;6.30;99.90;;;;;;5076986;28;20194;-76
2021/01/17 05:57:52;;;;;;;0.22;0.22;;;6.30;99.90;;;;;;5076743;28;20654;-77
2021/01/17 06:00:32;;;;;;;0.75;0.75;;;6.10;99.90;;;;;;5076694;28;20166;-75
2021/01/17 06:02:59;;;;;;;0.20;0.20;;;6.10;99.90;;;;;;5076492;28;20170;-76
2021/01/17 06:05:26;;;;;;;1.10;1.10;;;6.00;99.90;;;;;;5076560;28;20201;-76
2021/01/17 06:07:53;;;;;;;1.38;1.38;;;6.10;99.90;;;;;;5076492;28;20665;-75
2021/01/17 06:10:24;;;;;;;1.35;1.25;;;6.00;99.90;;;;;;5076494;28;20249;-76
2021/01/17 06:12:51;;;;;;;0.30;0.30;;;6.00;99.90;;;;;;5076281;28;20163;-76
2021/01/17 06:15:17;;;;;;;3.72;1.48;;;6.00;99.90;;;;;;5076251;28;20190;-76
2021/01/17 06:17:47;;;;;;;17.63;2.80;;;6.10;99.90;;;;;;5076259;28;20294;-74
2021/01/17 06:20:26;;;;;;;1.23;1.13;;;6.20;99.90;;;;;;5076335;28;20165;-75
2021/01/17 06:23:00;;;;;;;5.25;1.25;;;6.30;99.90;;;;;;5076055;28;20283;-76
2021/01/17 06:25:27;;;;;;;0.40;0.40;;;6.30;99.90;;;;;;5075837;28;20186;-76
2021/01/17 06:28:12;;;;;;;1.10;1.08;;;6.30;99.90;;;;;;5076143;28;20614;-77
2021/01/17 06:30:38;;;;;;;9.10;2.55;;;6.20;99.90;;;;;;5075868;28;20193;-76
2021/01/17 06:33:05;;;;;;;0.30;0.30;;;6.40;99.90;;;;;;5076149;28;20158;-75
2021/01/17 06:35:31;;;;;;;1.48;0.98;;;6.30;99.90;;;;;;5075537;28;20194;-75
2021/01/17 06:37:57;;;;;;;0.95;0.95;;;6.20;99.90;;;;;;5076045;28;20713;-76
2021/01/17 06:40:31;;;;;;;5.32;3.28;;;6.20;99.90;;;;;;5076151;28;20174;-76
2021/01/17 06:42:57;;;;;;;5.68;1.92;;;6.40;99.90;;;;;;5075934;28;20163;-76
2021/01/17 06:45:23;;;;;;;0.75;0.75;;;6.30;99.90;;;;;;5057969;28;20186;-76
2021/01/17 06:47:55;;;;;;;0.73;0.55;;;6.40;99.90;;;;;;5075256;28;20630;-75
2021/01/17 06:50:24;;;;;;;1.15;1.05;;;6.40;99.90;;;;;;5075083;28;20170;-77
2021/01/17 06:52:58;;;;;;;0.50;0.50;;;6.60;99.90;;;;;;5075918;28;20629;-76
2021/01/17 06:55:24;;;;;;;5.50;1.25;;;6.70;99.90;;;;;;5075658;28;20379;-76
2021/01/17 06:57:52;;;;;;;42.67;1.55;;;6.60;99.90;;;;;;5076138;28;20289;-77
2021/01/17 07:00:18;;;;;;;1.05;1.05;;;6.50;99.90;;;;;;5075711;28;20732;-77
2021/01/17 07:02:52;;;;;;;0.80;0.80;;;6.50;99.90;;;;;;5075525;28;20178;-77
2021/01/17 07:05:41;;;;;;;1.40;1.40;;;6.60;99.90;;;;;;5075030;28;20210;-77
2021/01/17 07:08:40;;;;;;;1.98;0.82;;;6.40;99.90;;;;;;5075553;28;20669;-76
2021/01/17 07:11:17;;;;;;;5.68;2.50;;;6.30;99.90;;;;;;5068811;28;20555;-77
2021/01/17 07:13:48;;;;;;;1.30;1.25;;;6.30;99.90;;;;;;5075099;28;20180;-75
2021/01/17 07:16:28;;;;;;;0.40;0.40;;;6.50;99.90;;;;;;5074990;28;20522;-77
2021/01/17 07:19:00;;;;;;;2.92;0.60;;;6.30;99.90;;;;;;5056884;28;20167;-77
2021/01/17 07:21:31;;;;;;;1.73;1.63;;;6.50;99.90;;;;;;5074885;28;20513;-75
2021/01/17 07:24:03;;;;;;;1.10;1.02;;;6.30;99.90;;;;;;5074801;28;20677;-74
2021/01/17 07:26:52;;;;;;;0.43;0.43;;;6.50;99.90;;;;;;5074936;28;20269;-77
2021/01/17 07:29:18;;;;;;;3.97;0.95;;;6.50;99.90;;;;;;5074911;28;20162;-76
2021/01/17 07:31:46;;;;;;;0.35;0.32;;;6.50;99.90;;;;;;5074672;28;20170;-76
2021/01/17 07:34:12;;;;;;;1.77;1.30;;;6.50;99.90;;;;;;5074870;28;20166;-77
2021/01/17 07:36:49;;;;;;;2.28;1.17;;;6.50;99.90;;;;;;5074770;28;20194;-76
2021/01/17 07:39:20;;;;;;;3.63;1.55;;;6.60;99.90;;;;;;5074810;28;20170;-76
2021/01/17 07:41:49;;;;;;;0.95;0.95;;;6.70;99.90;;;;;;5074717;28;20237;-77
2021/01/17 07:44:20;;;;;;;0.25;0.25;;;6.60;99.90;;;;;;5074683;28;20178;-77
2021/01/17 07:46:46;;;;;;;4.00;3.08;;;6.70;99.90;;;;;;5074628;28;20154;-76
2021/01/17 07:49:13;;;;;;;4.72;2.25;;;6.70;99.90;;;;;;5074397;28;20165;-76
2021/01/17 07:51:40;;;;;;;0.80;0.80;;;6.60;99.90;;;;;;5074388;28;20167;-76
2021/01/17 07:54:19;;;;;;;0.90;0.90;;;6.70;99.90;;;;;;5074496;28;20167;-76
2021/01/17 07:56:47;;;;;;;0.98;0.98;;;6.90;99.90;;;;;;5074457;28;20273;-77
2021/01/17 07:59:12;;;;;;;1.02;0.68;;;6.80;99.90;;;;;;5074312;28;20212;-76
2021/01/17 08:01:39;;;;;;;1.65;1.00;;;6.70;99.90;;;;;;5074638;28;20158;-77
2021/01/17 08:04:04;;;;;;;9.07;2.25;;;6.60;99.90;;;;;;5074229;28;20194;-74
2021/01/17 08:06:36;;;;;;;0.68;0.68;;;6.70;99.90;;;;;;5074089;28;20221;-75
2021/01/17 08:09:01;;;;;;;13.60;1.80;;;6.70;99.90;;;;;;5073947;28;20629;-76
2021/01/17 08:11:56;;;;;;;6.53;2.63;;;6.70;99.90;;;;;;5056070;28;20257;-76
2021/01/17 08:14:34;;;;;;;0.28;0.28;;;6.60;99.90;;;;;;5074096;28;20166;-75
2021/01/17 08:17:00;;;;;;;0.38;0.38;;;6.70;99.90;;;;;;5073518;28;20657;-74
2021/01/17 08:19:52;;;;;;;1.90;1.50;;;7.10;99.90;;;;;;5073931;28;20173;-76
2021/01/17 08:22:18;;;;;;;2.63;0.75;;;7.00;99.90;;;;;;5073917;28;20210;-75
2021/01/17 08:24:53;;;;;;;1.38;1.23;;;7.00;99.90;;;;;;5073640;28;20227;-73
2021/01/17 08:27:31;;;;;;;0.65;0.65;;;6.90;99.90;;;;;;5073753;28;20169;-75
2021/01/17 08:32:35;;;;;;;0.20;0.20;;;6.80;99.90;;;;;;5073892;28;20162;-75
2021/01/17 08:35:18;;;;;;;0.82;0.82;;;6.80;99.90;;;;;;5073495;28;20189;-75
2021/01/17 08:37:49;;;;;;;1.90;1.77;;;6.90;99.90;;;;;;5054623;28;20209;-74
2021/01/17 08:40:27;;;;;;;0.30;0.30;;;6.90;99.90;;;;;;5073272;28;20196;-73
2021/01/17 08:43:00;;;;;;;11.18;2.20;;;7.00;99.90;;;;;;5073603;28;20225;-74
2021/01/17 08:45:26;;;;;;;0.43;0.43;;;7.10;99.90;;;;;;5073114;28;20273;-74
2021/01/17 08:47:52;;;;;;;6.65;1.85;;;7.00;99.90;;;;;;5073412;28;20238;-73
2021/01/17 08:50:36;;;;;;;5.32;3.22;;;6.90;99.90;;;;;;5073293;28;20162;-74
2021/01/17 08:53:09;;;;;;;1.70;1.55;;;6.80;99.90;;;;;;5073200;28;20170;-73
2021/01/17 08:55:43;;;;;;;21.45;1.23;;;6.80;99.90;;;;;;5073229;28;20193;-76
2021/01/17 08:58:13;;;;;;;2.58;1.02;;;6.70;99.90;;;;;;5073229;28;20194;-77
2021/01/17 09:00:57;;;;;;;2.17;1.85;;;6.80;99.90;;;;;;5073180;28;20159;-76
2021/01/17 09:03:27;;;;;;;7.82;2.03;;;6.80;99.90;;;;;;5072800;28;20653;-76
2021/01/17 09:05:54;;;;;;;30.42;0.90;;;7.00;99.90;;;;;;5055133;28;20218;-74
2021/01/17 09:08:21;;;;;;;0.82;0.65;;;6.80;99.90;;;;;;5073195;28;20197;-74
2021/01/17 09:10:47;;;;;;;2.30;2.17;;;6.80;99.90;;;;;;5072859;28;20169;-74
2021/01/17 09:13:25;;;;;;;3.42;3.05;;;7.00;99.90;;;;;;5054774;28;20162;-76
2021/01/17 09:16:06;;;;;;;1.48;1.38;;;7.20;99.90;;;;;;5072876;28;20539;-74
2021/01/17 09:18:37;;;;;;;5.82;2.25;;;7.10;99.90;;;;;;5072895;28;20628;-80
2021/01/17 09:21:07;;;;;;;4.03;0.85;;;6.90;99.90;;;;;;5055430;28;20186;-74
2021/01/17 09:23:40;;;;;;;0.40;0.40;;;6.90;99.90;;;;;;5052915;28;20268;-74
2021/01/17 09:26:06;;;;;;;1.35;0.93;;;6.90;99.90;;;;;;5052791;28;20217;-76
2021/01/17 09:28:32;;;;;;;0.20;0.20;;;6.80;99.90;;;;;;5053079;28;20246;-75
2021/01/17 09:31:00;;;;;;;5.47;2.13;;;6.90;99.90;;;;;;5052499;28;20180;-76
2021/01/17 09:33:28;;;;;;;2.47;1.10;;;6.90;99.90;;;;;;5052449;28;20181;-75
2021/01/17 09:35:54;;;;;;;0.65;0.65;;;6.90;99.90;;;;;;5052369;28;20552;-76
2021/01/17 09:38:22;;;;;;;1.95;1.75;;;7.00;99.90;;;;;;5052372;28;20202;-75
2021/01/17 09:40:54;;;;;;;7.25;2.40;;;7.00;99.90;;;;;;5052430;28;20258;-74
2021/01/17 09:43:20;;;;;;;0.90;0.90;;;7.10;99.90;;;;;;5034057;28;20179;-74
2021/01/17 09:45:50;;;;;;;1.70;1.60;;;7.20;99.90;;;;;;5052499;28;20195;-74
2021/01/17 09:48:20;;;;;;;0.98;0.98;;;7.30;99.90;;;;;;5052435;28;20160;-74
2021/01/17 09:50:47;;;;;;;0.82;0.82;;;7.40;99.90;;;;;;5052606;28;20167;-74
2021/01/17 09:53:13;;;;;;;12.25;1.70;;;7.40;99.90;;;;;;5052347;28;20198;-74
2021/01/17 09:55:43;;;;;;;2.05;1.67;;;7.40;99.90;;;;;;5053985;28;20195;-76
2021/01/17 09:58:16;;;;;;;1.67;0.73;;;7.60;99.90;;;;;;5060265;28;20651;-76
2021/01/17 10:00:43;;;;;;;4.68;2.08;;;7.60;99.90;;;;;;5068040;28;20601;-76
2021/01/17 10:03:15;;;;;;;0.57;0.57;;;7.50;99.90;;;;;;5072202;28;20193;-73
2021/01/17 10:05:42;;;;;;;0.82;0.82;;;7.30;99.90;;;;;;5072066;28;20190;-74
2021/01/17 10:08:14;;;;;;;0.60;0.60;;;7.50;99.90;;;;;;5057651;28;20160;-74
2021/01/17 10:10:43;;;;;;;1.27;1.27;;;7.60;99.90;;;;;;5056738;28;20175;-74
2021/01/17 10:13:09;;;;;;;0.98;0.98;;;7.70;99.90;;;;;;5072167;28;20167;-75
2021/01/17 10:15:35;;;;;;;9.02;1.48;;;7.80;99.90;;;;;;5072012;28;20217;-75
2021/01/17 10:18:01;;;;;;;8.35;2.28;;;7.90;99.90;;;;;;5071927;28;20656;-74
2021/01/17 10:20:31;;;;;;;8.93;1.60;;;7.90;99.90;;;;;;5071271;28;20216;-74
2021/01/17 10:23:05;;;;;;;0.50;0.50;;;8.00;99.90;;;;;;5072775;28;20269;-75
2021/01/17 10:25:32;;;;;;;0.80;0.77;;;8.20;99.90;;;;;;5075355;28;20285;-75
2021/01/17 10:28:06;;;;;;;1.33;1.23;;;8.20;99.90;;;;;;5075540;28;20163;-75
2021/01/17 10:30:37;;;;;;;4.50;2.20;;;8.00;99.90;;;;;;5066643;28;20193;-77
2021/01/17 10:33:09;;;;;;;2.72;1.20;;;7.90;99.90;;;;;;5055650;28;20175;-75
2021/01/17 10:35:37;;;;;;;38.05;2.30;;;7.90;99.90;;;;;;5059334;28;20183;-75
2021/01/17 10:38:05;;;;;;;0.40;0.40;;;7.90;99.90;;;;;;5064371;28;20198;-76
2021/01/17 10:40:31;;;;;;;0.40;0.40;;;8.10;99.90;;;;;;5067465;28;20170;-77
2021/01/17 10:43:00;;;;;;;1.05;1.05;;;8.10;99.90;;;;;;5055410;28;20172;-77
2021/01/17 10:45:27;;;;;;;0.88;0.88;;;8.30;99.90;;;;;;5037292;28;20543;-76
2021/01/17 10:48:05;;;;;;;1.75;1.65;;;8.40;99.90;;;;;;5055269;28;20160;-73
2021/01/17 10:50:40;;;;;;;6.75;1.55;;;8.60;99.90;;;;;;5055712;28;20171;-75
2021/01/17 10:53:28;;;;;;;1.65;1.55;;;8.60;99.90;;;;;;5055392;28;20204;-75
2021/01/17 10:55:55;;;;;;;0.38;0.38;;;8.90;99.90;;;;;;5055125;28;20210;-76
2021/01/17 10:58:38;;;;;;;2.83;0.93;;;8.90;99.90;;;;;;5055120;28;20682;-80
2021/01/17 11:01:04;;;;;;;1.52;1.00;;;8.80;99.90;;;;;;5061245;28;20170;-76
2021/01/17 11:03:31;;;;;;;0.68;0.60;;;8.90;99.90;;;;;;5073077;28;20178;-76
2021/01/17 11:06:03;;;;;;;3.60;1.40;;;8.70;99.90;;;;;;5080572;28;20198;-75
2021/01/17 11:08:31;;;;;;;2.72;2.53;;;8.70;99.90;;;;;;5073359;28;20215;-77
2021/01/17 11:10:57;;;;;;;1.83;1.70;;;8.70;99.90;;;;;;5074340;28;20216;-78
2021/01/17 11:13:22;;;;;;;1.58;1.48;;;8.70;99.90;;;;;;5073563;28;20170;-77
2021/01/17 11:15:52;;;;;;;1.52;1.40;;;8.60;99.90;;;;;;5073731;28;20695;-78
2021/01/17 11:18:23;;;;;;;4.43;0.98;;;8.70;99.90;;;;;;5079474;28;20304;-78
2021/01/17 11:20:58;;;;;;;4.70;1.52;;;8.60;99.90;;;;;;5080699;28;20640;-77
2021/01/17 11:23:28;;;;;;;1.30;1.15;;;8.60;99.90;;;;;;5090937;28;20227;-77
2021/01/17 11:26:20;;;;;;;2.67;1.48;;;8.60;99.90;;;;;;5093399;28;20934;-78
2021/01/17 11:28:50;;;;;;;9.43;2.83;;;8.60;99.90;;;;;;5093661;28;20245;-79
2021/01/17 11:31:17;;;;;;;1.65;1.55;;;8.80;99.90;;;;;;5081257;28;20177;-79
2021/01/17 11:33:44;;;;;;;1.63;1.40;;;9.00;99.90;;;;;;5055169;28;20426;-77
2021/01/17 11:36:10;;;;;;;1.80;1.70;;;9.00;99.90;;;;;;5072202;28;20191;-79
2021/01/17 11:38:47;;;;;;;0.98;0.98;;;8.80;99.90;;;;;;5055287;28;20204;-78
2021/01/17 11:41:18;;;;;;;7.30;3.03;;;8.80;99.90;;;;;;5074127;28;20166;-75
2021/01/17 11:43:45;;;;;;;2.50;2.15;;;8.80;99.90;;;;;;5055736;28;20162;-75
2021/01/17 11:46:12;;;;;;;2.17;2.08;;;8.70;99.90;;;;;;5073474;28;20182;-76
2021/01/17 11:48:39;;;;;;;2.17;1.20;;;8.50;99.90;;;;;;5073997;28;20245;-75
2021/01/17 11:51:06;;;;;;;1.58;1.05;;;8.40;99.90;;;;;;5071489;28;20163;-76
2021/01/17 11:53:32;;;;;;;1.55;1.45;;;8.30;99.90;;;;;;5072570;28;20178;-73
2021/01/17 11:55:58;;;;;;;2.30;1.58;;;8.30;99.90;;;;;;5073794;28;20668;-75
2021/01/17 11:58:27;;;;;;;1.67;1.58;;;8.20;99.90;;;;;;5073963;28;20190;-75
2021/01/17 12:00:58;;;;;;;1.73;1.63;;;8.30;99.90;;;;;;5073186;28;20182;-76
2021/01/17 12:03:26;;;;;;;0.52;0.52;;;8.10;99.90;;;;;;5073636;28;20170;-78
2021/01/17 12:06:18;;;;;;;0.55;0.55;;;8.20;99.90;;;;;;5073904;28;20174;-76
2021/01/17 12:09:02;;;;;;;1.30;1.20;;;8.00;99.90;;;;;;5060267;28;20625;-74
2021/01/17 12:11:45;;;;;;;0.75;0.75;;;7.90;99.90;;;;;;5073680;28;20161;-78
2021/01/17 12:14:30;;;;;;;0.30;0.30;;;7.80;99.90;;;;;;5073502;28;20173;-77
2021/01/17 12:16:58;;;;;;;0.38;0.38;;;7.70;99.90;;;;;;5055695;28;20293;-75
2021/01/17 12:19:25;;;;;;;4.50;1.60;;;7.70;99.90;;;;;;5055423;28;20170;-77
2021/01/17 12:21:58;;;;;;;2.35;1.00;;;7.70;99.90;;;;;;5073376;28;20197;-75
2021/01/17 12:24:24;;;;;;;0.65;0.60;;;7.60;99.90;;;;;;5073555;28;20182;-77
2021/01/17 12:26:51;;;;;;;1.95;1.05;;;7.70;99.90;;;;;;5073399;28;20208;-83
2021/01/17 12:29:17;;;;;;;2.72;0.95;;;7.70;99.90;;;;;;5073682;28;20209;-76
2021/01/17 12:31:44;;;;;;;2.15;1.50;;;7.60;99.90;;;;;;5073582;28;20242;-76
2021/01/17 12:34:10;;;;;;;0.75;0.75;;;7.60;99.90;;;;;;5073518;28;20268;-76
2021/01/17 12:36:41;;;;;;;3.92;1.02;;;7.60;99.90;;;;;;5073193;28;20224;-76
2021/01/17 12:39:08;;;;;;;10.23;2.80;;;7.60;99.90;;;;;;5072713;28;20253;-76
2021/01/17 12:41:36;;;;;;;1.35;1.30;;;7.50;99.90;;;;;;5073126;28;20169;-76
2021/01/17 12:44:03;;;;;;;0.35;0.35;;;7.60;99.90;;;;;;5073245;28;20162;-75
2021/01/17 12:46:29;;;;;;;0.52;0.52;;;7.60;99.90;;;;;;5072906;28;20190;-76
2021/01/17 12:48:56;;;;;;;3.10;2.28;;;7.60;99.90;;;;;;5072890;28;20521;-73
2021/01/17 12:51:22;;;;;;;5.22;1.52;;;7.70;99.90;;;;;;5072491;28;20284;-75
2021/01/17 12:53:50;;;;;;;1.60;0.52;;;7.70;99.90;;;;;;5055025;28;20265;-75
2021/01/17 12:56:17;;;;;;;0.90;0.40;;;7.70;99.90;;;;;;5072836;28;20281;-75
2021/01/17 12:58:43;;;;;;;0.30;0.30;;;7.70;99.90;;;;;;5072844;28;20191;-75
2021/01/17 13:01:09;;;;;;;2.22;0.90;;;7.70;99.90;;;;;;5072653;28;20165;-76
2021/01/17 13:03:35;;;;;;;0.20;0.20;;;7.90;99.90;;;;;;5073373;28;20564;-77
2021/01/17 13:06:03;;;;;;;1.48;1.15;;;8.00;99.90;;;;;;5072940;28;20182;-74
2021/01/17 13:08:31;;;;;;;0.20;0.20;;;8.00;99.90;;;;;;5072851;28;20162;-75
2021/01/17 13:10:57;;;;;;;1.65;0.77;;;8.00;99.90;;;;;;5073009;28;20656;-78
2021/01/17 13:13:30;;;;;;;0.20;0.20;;;8.10;99.90;;;;;;5072884;28;20200;-78
2021/01/17 13:15:57;;;;;;;0.28;0.28;;;8.10;99.90;;;;;;5072619;28;20269;-77